Time;durP1;ratioP1;P1;durP2;ratioP2;P2;SDS_P1;SDS_P2;PMS_P1;PMS_P2;Temp;Humidity;BMP_temperature;BMP_pressure;BME280_temperature;BME280_humidity;BME280_pressure;Samples;Min_cycle;Max_cycle;Signal;HPM_P1;HPM_P2
2022/12/26 00:01:32;;;;;;;1.92;1.82;;;15.10;95.70;;;;;;923294;150;28578;-78
2022/12/26 00:03:58;;;;;;;3.58;3.27;;;15.10;95.60;;;;;;922738;150;27425;-78
2022/12/26 00:06:25;;;;;;;2.00;1.90;;;15.10;95.70;;;;;;916646;152;27359;-78
2022/12/26 00:08:51;;;;;;;2.55;2.35;;;15.10;95.60;;;;;;914859;152;27432;-78
2022/12/26 00:11:18;;;;;;;2.20;2.10;;;15.10;95.60;;;;;;917030;152;27400;-77
2022/12/26 00:13:44;;;;;;;2.08;1.98;;;15.10;95.50;;;;;;917338;152;27321;-78
2022/12/26 00:16:17;;;;;;;2.58;2.12;;;15.20;95.50;;;;;;917464;152;27356;-77
2022/12/26 00:18:43;;;;;;;2.12;1.92;;;15.20;95.40;;;;;;917290;152;27470;-78
2022/12/26 00:21:10;;;;;;;2.67;2.47;;;15.20;95.30;;;;;;918846;152;27402;-78
2022/12/26 00:23:37;;;;;;;3.58;2.25;;;15.20;95.20;;;;;;919496;152;27398;-77
2022/12/26 00:26:03;;;;;;;2.40;2.20;;;15.20;95.10;;;;;;920414;152;28607;-77
2022/12/26 00:28:30;;;;;;;2.98;1.98;;;15.20;95.20;;;;;;918033;152;27379;-77
2022/12/26 00:30:56;;;;;;;2.00;1.85;;;15.20;95.00;;;;;;916502;152;27292;-77
2022/12/26 00:33:23;;;;;;;2.30;2.10;;;15.20;95.00;;;;;;916661;152;27437;-77
2022/12/26 00:35:50;;;;;;;2.52;2.00;;;15.30;95.00;;;;;;917583;152;27493;-77
2022/12/26 00:38:16;;;;;;;2.77;2.25;;;15.30;94.90;;;;;;917393;152;27425;-77
2022/12/26 00:40:43;;;;;;;2.15;1.90;;;15.30;95.10;;;;;;917336;152;27385;-77
2022/12/26 00:43:09;;;;;;;2.65;2.20;;;15.30;94.60;;;;;;918026;151;27343;-77
2022/12/26 00:45:36;;;;;;;2.27;2.08;;;15.30;94.60;;;;;;915752;152;27468;-77
2022/12/26 00:48:03;;;;;;;2.05;1.90;;;15.30;94.50;;;;;;914001;153;27397;-77
2022/12/26 00:50:29;;;;;;;2.37;2.12;;;15.30;94.40;;;;;;911818;153;27375;-76
2022/12/26 00:52:56;;;;;;;2.67;1.92;;;15.30;94.40;;;;;;913503;156;28371;-76
2022/12/26 00:55:22;;;;;;;2.22;1.87;;;15.30;94.30;;;;;;909493;154;27286;-77
2022/12/26 00:57:49;;;;;;;2.50;2.25;;;15.30;94.30;;;;;;912987;154;27328;-77
2022/12/26 01:00:15;;;;;;;2.35;2.15;;;15.30;94.20;;;;;;920467;151;27347;-77
2022/12/26 01:02:42;;;;;;;2.22;2.08;;;15.30;94.20;;;;;;912300;154;27508;-77
2022/12/26 01:05:09;;;;;;;2.40;2.20;;;15.30;94.20;;;;;;912804;154;27314;-77
2022/12/26 01:07:35;;;;;;;2.58;2.37;;;15.30;94.10;;;;;;911179;156;27333;-77
2022/12/26 01:10:02;;;;;;;4.60;2.67;;;15.30;93.60;;;;;;920791;152;27458;-76
2022/12/26 01:12:29;;;;;;;2.85;2.50;;;15.20;93.90;;;;;;912342;156;27445;-77
2022/12/26 01:14:55;;;;;;;2.52;2.33;;;15.20;93.80;;;;;;907257;154;27411;-76
2022/12/26 01:17:22;;;;;;;2.62;2.42;;;15.20;93.80;;;;;;925019;154;27871;-77
2022/12/26 01:19:48;;;;;;;2.67;2.05;;;15.20;93.70;;;;;;912791;153;27425;-77
2022/12/26 01:22:15;;;;;;;3.12;2.37;;;15.10;93.70;;;;;;913029;156;27411;-76
2022/12/26 01:24:41;;;;;;;3.75;2.15;;;15.10;93.80;;;;;;912932;153;27452;-77
2022/12/26 01:27:08;;;;;;;2.10;1.95;;;15.10;93.90;;;;;;913495;156;27306;-77
2022/12/26 01:29:35;;;;;;;2.37;1.95;;;15.00;93.80;;;;;;912122;153;27406;-77
2022/12/26 01:32:01;;;;;;;2.80;2.00;;;15.00;93.90;;;;;;906165;157;27371;-77
2022/12/26 01:34:28;;;;;;;3.02;2.20;;;15.00;93.90;;;;;;922184;151;27428;-77
2022/12/26 01:36:54;;;;;;;2.08;1.98;;;15.00;93.90;;;;;;911991;153;27349;-76
2022/12/26 01:39:21;;;;;;;5.08;2.00;;;15.00;93.90;;;;;;905617;156;27355;-77
2022/12/26 01:41:47;;;;;;;2.52;2.17;;;14.90;94.10;;;;;;923593;152;27465;-77
2022/12/26 01:44:38;;;;;;;2.00;1.90;;;14.90;94.10;;;;;;912433;156;27400;-77
2022/12/26 01:47:05;;;;;;;2.35;2.00;;;14.90;94.40;;;;;;914816;154;27418;-77
2022/12/26 01:49:34;;;;;;;3.15;1.92;;;14.80;94.10;;;;;;913869;154;27325;-77
2022/12/26 01:52:04;;;;;;;2.37;1.90;;;14.90;94.30;;;;;;913593;154;27475;-77
2022/12/26 01:54:31;;;;;;;2.58;2.25;;;14.90;94.30;;;;;;913616;153;27347;-77
2022/12/26 01:56:57;;;;;;;2.35;2.00;;;14.80;94.30;;;;;;914388;155;27499;-77
2022/12/26 01:59:24;;;;;;;4.12;2.02;;;14.90;94.40;;;;;;915290;154;27381;-77
2022/12/26 02:01:51;;;;;;;4.25;1.90;;;14.80;94.30;;;;;;911460;156;27363;-77
2022/12/26 02:07:02;;;;;;;2.20;2.10;;;14.90;94.40;;;;;;913790;156;27438;-77
2022/12/26 02:09:28;;;;;;;4.22;2.15;;;14.90;94.40;;;;;;912783;153;27550;-77
2022/12/26 02:12:07;;;;;;;4.03;2.00;;;14.90;94.40;;;;;;914689;156;27397;-77
2022/12/26 02:14:34;;;;;;;2.25;2.05;;;14.90;94.40;;;;;;911727;154;27377;-77
2022/12/26 02:17:00;;;;;;;2.20;2.00;;;14.90;94.30;;;;;;913196;154;27353;-77
2022/12/26 02:19:45;;;;;;;2.50;2.08;;;14.90;94.20;;;;;;906339;157;27525;-77
2022/12/26 02:22:18;;;;;;;2.17;2.00;;;14.90;94.30;;;;;;921970;154;27329;-77
2022/12/26 02:24:47;;;;;;;2.22;1.67;;;15.00;94.30;;;;;;912596;153;27398;-76
2022/12/26 02:27:34;;;;;;;2.20;2.00;;;15.00;94.20;;;;;;914966;153;27408;-77
2022/12/26 02:30:07;;;;;;;4.25;1.90;;;15.00;94.10;;;;;;912208;156;27489;-76
2022/12/26 02:32:45;;;;;;;1.82;1.70;;;15.00;94.00;;;;;;912850;153;27330;-77
2022/12/26 02:35:33;;;;;;;1.90;1.70;;;15.00;94.30;;;;;;913928;153;27454;-77
2022/12/26 02:38:09;;;;;;;2.58;1.90;;;15.00;93.90;;;;;;913658;153;27433;-77
2022/12/26 02:40:38;;;;;;;2.20;2.00;;;15.00;94.10;;;;;;914223;153;27485;-77
2022/12/26 02:43:16;;;;;;;2.87;2.20;;;15.00;94.00;;;;;;911890;156;27701;-76
2022/12/26 02:48:43;;;;;;;2.52;1.98;;;15.10;94.40;;;;;;919304;153;27445;-77
2022/12/26 03:14:26;;;;;;;2.70;1.75;;;15.40;93.10;;;;;;919848;153;27499;-77
2022/12/26 03:19:56;;;;;;;2.02;1.85;;;15.50;92.60;;;;;;919186;153;27860;-77
2022/12/26 03:22:29;;;;;;;1.72;1.60;;;15.50;92.60;;;;;;916153;152;27427;-77
2022/12/26 03:26:38;;;;;;;3.10;1.75;;;15.50;92.70;;;;;;917962;153;27321;-77
2022/12/26 03:26:57;;;;;;;3.27;2.02;;;15.50;92.60;;;;;;916561;153;27335;-77
2022/12/26 03:32:09;;;;;;;2.08;1.85;;;15.60;92.40;;;;;;919590;153;27379;-77
2022/12/26 03:34:36;;;;;;;1.95;1.80;;;15.60;92.30;;;;;;919042;153;27421;-77
2022/12/26 03:37:14;;;;;;;2.92;2.08;;;15.60;92.30;;;;;;919137;153;27451;-77
2022/12/26 04:20:46;;;;;;;2.17;1.80;;;15.20;91.70;;;;;;921817;154;27360;-79
2022/12/26 04:45:50;;;;;;;2.37;1.62;;;15.00;91.60;;;;;;913097;156;27808;-79
2022/12/26 04:51:01;;;;;;;1.82;1.62;;;14.90;91.70;;;;;;912800;153;27386;-80
2022/12/26 04:53:28;;;;;;;3.12;1.87;;;14.90;91.80;;;;;;912910;154;27362;-79
2022/12/26 04:55:54;;;;;;;2.00;1.62;;;14.90;91.80;;;;;;911666;153;27463;-79
2022/12/26 04:58:23;;;;;;;1.92;1.80;;;14.80;91.80;;;;;;914419;154;27454;-79
2022/12/26 05:00:48;;;;;;;4.15;2.37;;;14.80;91.90;;;;;;912597;154;27373;-78
2022/12/26 05:11:29;;;;;;;3.45;1.80;;;14.80;92.10;;;;;;914043;154;27831;-78
2022/12/26 05:13:56;;;;;;;2.12;1.67;;;14.80;92.10;;;;;;913051;154;27349;-78
2022/12/26 05:30:06;;;;;;;1.87;1.77;;;14.80;92.80;;;;;;912689;153;27347;-80
2022/12/26 05:35:17;;;;;;;2.42;1.72;;;14.90;92.70;;;;;;912403;153;27914;-79
2022/12/26 05:37:44;;;;;;;2.10;1.90;;;14.90;92.60;;;;;;923772;151;27450;-78
2022/12/26 05:40:11;;;;;;;2.00;1.70;;;15.00;92.60;;;;;;914260;156;27393;-79
2022/12/26 05:42:37;;;;;;;2.80;2.10;;;15.00;92.50;;;;;;921115;155;27305;-79
2022/12/26 05:45:04;;;;;;;1.82;1.60;;;15.00;92.50;;;;;;905029;156;27920;-79
2022/12/26 05:47:30;;;;;;;4.17;1.72;;;15.00;92.50;;;;;;914197;154;27478;-79
2022/12/26 05:49:57;;;;;;;1.80;1.70;;;15.10;92.40;;;;;;913445;154;27883;-79
2022/12/26 05:52:24;;;;;;;1.70;1.60;;;15.10;92.40;;;;;;911749;154;27498;-79
2022/12/26 05:54:50;;;;;;;1.72;1.60;;;15.20;92.30;;;;;;912501;154;28030;-79
2022/12/26 05:57:17;;;;;;;2.35;1.70;;;15.20;92.30;;;;;;915657;154;27442;-79
2022/12/26 05:59:43;;;;;;;1.75;1.65;;;15.20;92.20;;;;;;912141;153;27312;-79
2022/12/26 06:02:10;;;;;;;1.90;1.50;;;15.20;92.10;;;;;;913300;156;27376;-79
2022/12/26 06:04:36;;;;;;;2.00;1.80;;;15.30;92.20;;;;;;912015;156;27409;-79
2022/12/26 06:07:03;;;;;;;2.33;1.70;;;15.30;92.20;;;;;;911290;156;27466;-79
2022/12/26 06:09:30;;;;;;;2.08;1.80;;;15.30;92.10;;;;;;911464;153;27478;-79
2022/12/26 06:11:56;;;;;;;2.22;1.70;;;15.40;92.00;;;;;;912421;156;27381;-79
2022/12/26 06:14:23;;;;;;;1.72;1.62;;;15.40;92.00;;;;;;912788;154;27482;-79
2022/12/26 06:16:49;;;;;;;2.95;1.75;;;15.40;91.90;;;;;;912978;153;27385;-77
2022/12/26 06:19:16;;;;;;;2.40;1.65;;;15.40;91.80;;;;;;910240;156;27496;-79
2022/12/26 06:21:43;;;;;;;1.70;1.60;;;15.40;91.60;;;;;;912437;154;27506;-79
2022/12/26 06:24:09;;;;;;;2.52;2.00;;;15.40;91.30;;;;;;913530;156;27334;-79
2022/12/26 06:26:36;;;;;;;1.87;1.77;;;15.40;91.30;;;;;;913475;154;27417;-79
2022/12/26 06:29:02;;;;;;;4.90;2.10;;;15.40;91.00;;;;;;912810;154;27288;-79
2022/12/26 06:31:29;;;;;;;2.42;2.22;;;15.40;91.20;;;;;;915013;154;27667;-78
2022/12/26 06:33:57;;;;;;;2.72;1.67;;;15.40;91.30;;;;;;913225;156;27467;-79
2022/12/26 06:36:22;;;;;;;1.77;1.67;;;15.40;91.20;;;;;;913443;154;27396;-79
2022/12/26 06:38:49;;;;;;;1.77;1.67;;;15.40;91.20;;;;;;912710;156;27334;-79
2022/12/26 06:41:15;;;;;;;3.77;1.90;;;15.40;91.30;;;;;;914091;154;27314;-79
2022/12/26 06:43:42;;;;;;;3.20;2.08;;;15.40;91.30;;;;;;911423;156;27357;-79
2022/12/26 06:46:08;;;;;;;4.15;2.08;;;15.40;91.30;;;;;;924570;151;27812;-79
2022/12/26 06:48:38;;;;;;;2.30;2.10;;;15.40;91.30;;;;;;911444;156;27349;-79
2022/12/26 06:51:04;;;;;;;2.90;1.72;;;15.40;91.40;;;;;;918841;152;27480;-79
2022/12/26 06:53:31;;;;;;;2.10;1.90;;;15.40;91.40;;;;;;919549;152;27445;-79
2022/12/26 06:55:58;;;;;;;4.05;1.85;;;15.40;91.60;;;;;;928534;150;27431;-79
2022/12/26 06:58:24;;;;;;;1.87;1.77;;;15.50;91.90;;;;;;918331;152;27537;-79
2022/12/26 07:00:51;;;;;;;1.98;1.87;;;15.50;91.90;;;;;;918979;153;27321;-79
2022/12/26 07:03:17;;;;;;;2.35;1.80;;;15.40;91.80;;;;;;918749;153;27498;-79
2022/12/26 07:05:44;;;;;;;1.75;1.65;;;15.40;91.90;;;;;;910779;155;27317;-79
2022/12/26 07:08:11;;;;;;;2.80;1.70;;;15.40;92.10;;;;;;929522;153;27300;-77
2022/12/26 07:10:37;;;;;;;2.25;2.00;;;15.40;92.20;;;;;;927939;153;27441;-79
2022/12/26 07:13:04;;;;;;;1.72;1.47;;;15.30;92.30;;;;;;913781;156;27448;-79
2022/12/26 07:15:30;;;;;;;4.15;2.45;;;15.30;92.50;;;;;;927028;150;27444;-79
2022/12/26 07:17:57;;;;;;;3.22;2.25;;;15.30;92.70;;;;;;919739;154;27336;-81
2022/12/26 07:20:23;;;;;;;2.00;1.80;;;15.30;92.80;;;;;;921275;153;27337;-79
2022/12/26 07:22:50;;;;;;;2.12;1.92;;;15.20;92.90;;;;;;920396;155;27471;-81
2022/12/26 07:25:17;;;;;;;1.80;1.70;;;15.20;93.10;;;;;;919101;153;28121;-78
2022/12/26 07:27:43;;;;;;;2.02;1.80;;;15.20;93.30;;;;;;920963;152;27434;-78
2022/12/26 07:30:10;;;;;;;3.98;1.90;;;15.10;93.50;;;;;;919149;155;27368;-77
2022/12/26 07:32:36;;;;;;;3.58;1.95;;;15.10;93.60;;;;;;914950;153;27468;-79
2022/12/26 07:35:03;;;;;;;3.35;1.98;;;15.10;93.80;;;;;;918271;152;27450;-79
2022/12/26 07:37:30;;;;;;;1.85;1.75;;;15.00;94.10;;;;;;926373;150;27452;-79
2022/12/26 07:39:56;;;;;;;3.15;2.10;;;15.00;94.30;;;;;;917842;153;27419;-79
2022/12/26 07:42:23;;;;;;;2.92;1.90;;;15.00;94.40;;;;;;920339;153;27344;-79
2022/12/26 07:44:49;;;;;;;4.35;2.00;;;14.90;94.60;;;;;;913057;153;27359;-79
2022/12/26 07:47:16;;;;;;;2.12;1.92;;;14.90;94.80;;;;;;919889;152;27459;-79
2022/12/26 07:49:43;;;;;;;2.85;1.95;;;14.90;95.00;;;;;;919064;154;27421;-79
2022/12/26 07:52:09;;;;;;;2.47;2.02;;;14.80;95.20;;;;;;908725;151;27468;-79
2022/12/26 07:54:36;;;;;;;2.12;1.92;;;14.80;95.50;;;;;;905109;153;27388;-79
2022/12/26 07:57:02;;;;;;;5.45;1.95;;;14.80;95.60;;;;;;920286;150;27295;-79
2022/12/26 07:59:29;;;;;;;3.55;1.95;;;14.70;95.80;;;;;;916589;152;27394;-79
2022/12/26 08:01:57;;;;;;;2.60;2.40;;;14.70;96.20;;;;;;918756;152;27416;-79
2022/12/26 08:04:22;;;;;;;1.98;1.87;;;14.70;96.40;;;;;;917172;152;27389;-79
2022/12/26 08:06:49;;;;;;;2.67;1.87;;;14.70;96.50;;;;;;918868;152;27332;-79
2022/12/26 08:09:15;;;;;;;2.52;2.10;;;14.70;96.70;;;;;;905798;153;27335;-79
2022/12/26 08:11:42;;;;;;;4.50;2.10;;;14.70;96.90;;;;;;919774;152;27364;-79
2022/12/26 08:14:08;;;;;;;3.60;2.10;;;14.70;97.20;;;;;;917763;152;27467;-79
2022/12/26 08:16:35;;;;;;;2.12;1.90;;;14.70;97.40;;;;;;916896;152;27401;-79
2022/12/26 08:19:02;;;;;;;2.33;2.10;;;14.60;97.60;;;;;;922031;150;28256;-79
2022/12/26 08:21:28;;;;;;;2.10;1.90;;;14.60;97.70;;;;;;919598;151;27352;-79
2022/12/26 08:23:55;;;;;;;2.15;1.95;;;14.60;97.80;;;;;;917628;151;27413;-79
2022/12/26 08:26:22;;;;;;;2.27;1.60;;;14.60;98.10;;;;;;919964;152;27417;-79
2022/12/26 08:28:48;;;;;;;2.70;2.20;;;14.50;98.10;;;;;;919616;151;27462;-79
2022/12/26 08:31:15;;;;;;;3.27;2.02;;;14.50;98.20;;;;;;916190;152;27353;-79
2022/12/26 08:33:41;;;;;;;3.50;2.10;;;14.50;98.40;;;;;;921565;150;27389;-78
2022/12/26 08:36:08;;;;;;;2.15;1.70;;;14.50;98.20;;;;;;915639;152;27342;-78
2022/12/26 08:38:34;;;;;;;2.10;1.90;;;14.50;98.70;;;;;;921612;150;27767;-78
2022/12/26 08:41:01;;;;;;;2.45;1.90;;;14.40;98.90;;;;;;906137;153;27663;-78
2022/12/26 08:43:27;;;;;;;2.17;1.98;;;14.40;99.00;;;;;;922017;150;27372;-78
2022/12/26 08:45:57;;;;;;;2.17;1.92;;;14.40;99.20;;;;;;927186;150;27337;-78
2022/12/26 08:48:24;;;;;;;1.87;1.77;;;14.40;99.30;;;;;;927692;151;27363;-78
2022/12/26 08:50:56;;;;;;;2.05;1.85;;;14.40;99.40;;;;;;928918;150;27449;-78
2022/12/26 08:53:23;;;;;;;2.02;1.70;;;14.40;99.60;;;;;;933553;150;27821;-78
2022/12/26 08:55:49;;;;;;;2.17;1.98;;;14.30;99.60;;;;;;932147;152;27370;-78
2022/12/26 08:58:16;;;;;;;2.00;1.80;;;14.40;99.80;;;;;;931485;152;27414;-78
2022/12/26 09:00:42;;;;;;;2.15;1.95;;;14.40;99.90;;;;;;913031;153;27378;-78
2022/12/26 09:03:09;;;;;;;2.17;1.98;;;14.40;99.90;;;;;;927656;150;27432;-78
2022/12/26 09:05:36;;;;;;;1.82;1.72;;;14.40;99.90;;;;;;919127;153;27373;-78
2022/12/26 09:08:02;;;;;;;2.85;2.10;;;14.40;99.90;;;;;;917041;153;27418;-78
2022/12/26 09:10:29;;;;;;;2.30;2.10;;;14.40;99.90;;;;;;916078;153;27372;-78
2022/12/26 09:12:55;;;;;;;2.90;2.12;;;14.40;99.90;;;;;;918655;153;27325;-78
2022/12/26 09:15:22;;;;;;;2.25;1.90;;;14.40;99.90;;;;;;920363;152;27301;-78
2022/12/26 09:17:49;;;;;;;2.05;1.85;;;14.40;99.90;;;;;;920695;153;27316;-78
2022/12/26 09:20:15;;;;;;;2.12;1.77;;;14.40;99.90;;;;;;920182;154;27493;-78
2022/12/26 09:22:51;;;;;;;1.90;1.80;;;14.40;99.90;;;;;;919517;152;27420;-78
2022/12/26 09:25:18;;;;;;;2.27;1.98;;;14.50;99.90;;;;;;917820;153;27318;-78
2022/12/26 09:27:44;;;;;;;1.90;1.80;;;14.50;99.90;;;;;;918727;152;27679;-78
2022/12/26 09:30:11;;;;;;;2.12;1.77;;;14.50;99.90;;;;;;919098;155;27340;-78
2022/12/26 09:32:37;;;;;;;1.82;1.70;;;14.50;99.90;;;;;;920157;152;27415;-78
2022/12/26 09:35:04;;;;;;;1.90;1.80;;;14.50;99.90;;;;;;919304;152;27507;-79
2022/12/26 09:37:31;;;;;;;2.08;1.60;;;14.50;99.90;;;;;;916124;152;27367;-79
2022/12/26 09:39:57;;;;;;;2.27;1.75;;;14.50;99.90;;;;;;911837;153;27331;-79
2022/12/26 09:42:39;;;;;;;4.35;1.80;;;14.50;99.90;;;;;;929106;153;27334;-80
2022/12/26 09:45:11;;;;;;;2.00;1.80;;;14.50;99.90;;;;;;918257;152;27331;-79
2022/12/26 09:47:47;;;;;;;2.60;2.15;;;14.50;99.90;;;;;;918605;155;27391;-79
2022/12/26 09:50:25;;;;;;;3.02;2.15;;;14.50;99.90;;;;;;919183;155;27372;-80
2022/12/26 09:52:58;;;;;;;3.05;2.52;;;14.60;99.90;;;;;;911572;154;27504;-79
2022/12/26 09:55:25;;;;;;;2.50;2.10;;;14.60;99.90;;;;;;913472;154;27398;-80
2022/12/26 09:57:51;;;;;;;1.90;1.80;;;14.60;99.90;;;;;;911720;153;27331;-80
2022/12/26 10:00:18;;;;;;;2.15;1.95;;;14.60;99.90;;;;;;912680;153;27490;-80
2022/12/26 10:02:44;;;;;;;4.12;1.80;;;14.60;99.90;;;;;;914366;156;27380;-80
2022/12/26 10:05:11;;;;;;;1.55;1.45;;;14.60;99.90;;;;;;911577;154;27334;-80
2022/12/26 10:07:43;;;;;;;1.92;1.82;;;14.60;99.90;;;;;;915333;156;27461;-79
2022/12/26 10:10:09;;;;;;;1.75;1.65;;;14.70;99.90;;;;;;912140;156;27543;-79
2022/12/26 10:12:45;;;;;;;2.47;1.60;;;14.70;99.90;;;;;;905782;154;27429;-80
2022/12/26 10:15:14;;;;;;;1.55;1.45;;;14.70;99.90;;;;;;921195;154;27268;-81
2022/12/26 10:18:02;;;;;;;1.60;1.35;;;14.70;99.80;;;;;;912288;156;27282;-79
2022/12/26 10:20:34;;;;;;;1.42;1.32;;;14.80;99.80;;;;;;912277;156;27460;-80
2022/12/26 10:23:01;;;;;;;1.60;1.50;;;14.80;99.70;;;;;;912196;153;27393;-81
2022/12/26 10:25:58;;;;;;;1.47;1.32;;;14.90;99.60;;;;;;911985;153;27342;-79
2022/12/26 10:28:33;;;;;;;1.60;1.50;;;14.90;99.60;;;;;;922960;151;27406;-79
2022/12/26 10:31:00;;;;;;;1.82;1.67;;;14.90;99.40;;;;;;919192;152;27317;-79
2022/12/26 10:33:35;;;;;;;1.80;1.70;;;15.00;99.30;;;;;;906248;156;27420;-78
2022/12/26 10:36:02;;;;;;;1.55;1.22;;;15.00;99.20;;;;;;912055;156;27483;-79
2022/12/26 10:38:37;;;;;;;1.40;1.30;;;15.00;99.00;;;;;;913093;153;27393;-79
2022/12/26 10:41:07;;;;;;;1.25;1.15;;;15.00;98.80;;;;;;913426;156;27305;-79
2022/12/26 10:43:33;;;;;;;1.77;1.57;;;15.10;98.70;;;;;;915271;153;27315;-79
2022/12/26 10:46:18;;;;;;;1.50;1.20;;;15.10;98.60;;;;;;914350;153;27400;-79
2022/12/26 10:48:45;;;;;;;1.60;1.47;;;15.20;98.40;;;;;;922439;151;27413;-78
2022/12/26 10:51:12;;;;;;;2.80;1.40;;;15.20;98.50;;;;;;912312;154;27413;-78
2022/12/26 10:53:38;;;;;;;1.42;1.32;;;15.20;98.00;;;;;;913411;154;27406;-79
2022/12/26 10:56:05;;;;;;;1.42;1.32;;;15.20;98.30;;;;;;913019;153;27502;-79
2022/12/26 10:58:31;;;;;;;1.12;1.12;;;15.30;97.80;;;;;;913794;153;27378;-79
2022/12/26 11:00:58;;;;;;;1.50;1.40;;;15.30;97.80;;;;;;913055;153;27349;-79
2022/12/26 11:03:24;;;;;;;1.87;1.40;;;15.20;97.70;;;;;;905550;153;27342;-79
2022/12/26 11:05:51;;;;;;;1.30;1.12;;;15.30;97.70;;;;;;912487;154;27462;-80
2022/12/26 11:08:32;;;;;;;1.55;1.45;;;15.30;97.70;;;;;;906997;154;27310;-80
2022/12/26 11:11:02;;;;;;;2.42;1.50;;;15.20;98.20;;;;;;922451;151;28044;-79
2022/12/26 11:13:28;;;;;;;1.72;1.30;;;15.20;97.70;;;;;;914638;156;27755;-80
2022/12/26 11:15:55;;;;;;;1.45;1.32;;;15.20;97.60;;;;;;915211;153;27392;-80
2022/12/26 11:18:21;;;;;;;1.75;1.30;;;15.20;97.70;;;;;;912632;154;27319;-79
2022/12/26 11:20:48;;;;;;;1.50;1.40;;;15.10;97.80;;;;;;920981;151;27430;-79
2022/12/26 11:23:20;;;;;;;1.02;1.00;;;15.10;97.90;;;;;;913273;153;27386;-80
2022/12/26 11:25:47;;;;;;;1.40;1.30;;;15.10;98.00;;;;;;915201;153;27496;-79
2022/12/26 11:28:19;;;;;;;1.45;1.35;;;15.10;98.20;;;;;;912330;153;27438;-79
2022/12/26 11:30:46;;;;;;;1.65;1.55;;;15.20;98.20;;;;;;912238;153;27771;-79
2022/12/26 11:33:18;;;;;;;1.57;1.42;;;15.20;98.20;;;;;;914457;153;27278;-80
2022/12/26 11:35:47;;;;;;;1.98;1.32;;;15.10;98.50;;;;;;918321;153;27429;-79
2022/12/26 11:38:33;;;;;;;1.00;1.00;;;15.20;98.20;;;;;;923663;151;27383;-79
2022/12/26 11:41:30;;;;;;;1.22;1.12;;;15.20;98.00;;;;;;922776;151;28246;-79
2022/12/26 11:43:07;;;;;;;1.32;1.12;;;15.30;98.10;;;;;;920947;151;27378;-79
2022/12/26 11:45:35;;;;;;;1.70;1.50;;;15.30;98.00;;;;;;913251;153;27779;-79
2022/12/26 11:48:00;;;;;;;1.25;1.15;;;15.30;98.20;;;;;;911992;153;27373;-79
2022/12/26 11:50:27;;;;;;;1.60;1.40;;;15.30;98.40;;;;;;912870;153;27381;-79
2022/12/26 11:52:59;;;;;;;3.17;2.80;;;15.40;98.50;;;;;;913079;153;27384;-79
2022/12/26 11:55:32;;;;;;;7.55;5.33;;;15.40;98.40;;;;;;923395;151;27338;-79
2022/12/26 11:58:11;;;;;;;7.15;6.45;;;15.40;98.20;;;;;;913485;153;27494;-79
2022/12/26 12:00:36;;;;;;;7.22;6.50;;;15.50;98.20;;;;;;913314;153;27506;-78
2022/12/26 12:03:12;;;;;;;10.32;8.03;;;15.50;98.10;;;;;;913831;153;27420;-79
2022/12/26 12:06:02;;;;;;;12.23;8.73;;;15.50;98.00;;;;;;924900;151;27371;-79
2022/12/26 12:08:35;;;;;;;4.35;3.67;;;15.50;97.80;;;;;;922887;153;27428;-79
2022/12/26 12:11:07;;;;;;;3.35;3.05;;;15.50;97.50;;;;;;913194;153;27414;-78
2022/12/26 12:13:57;;;;;;;3.00;2.67;;;15.50;97.40;;;;;;912348;154;27507;-79
2022/12/26 12:16:28;;;;;;;2.70;2.50;;;15.50;97.40;;;;;;913823;154;27475;-79
2022/12/26 12:19:13;;;;;;;2.10;1.85;;;15.40;97.10;;;;;;912405;154;27357;-78
2022/12/26 12:21:47;;;;;;;2.65;2.30;;;15.40;97.60;;;;;;914242;154;27365;-79
2022/12/26 12:24:30;;;;;;;2.60;2.40;;;15.30;97.60;;;;;;912252;156;27412;-78
2022/12/26 12:27:18;;;;;;;2.08;1.87;;;15.30;97.80;;;;;;904725;157;27328;-81
2022/12/26 12:30:05;;;;;;;1.80;1.70;;;15.30;97.90;;;;;;921698;154;27364;-80
2022/12/26 12:32:50;;;;;;;1.80;1.70;;;15.30;98.00;;;;;;883410;156;27441;-79
2022/12/26 12:35:26;;;;;;;1.75;1.65;;;15.30;98.10;;;;;;913043;156;27283;-79
2022/12/26 12:38:26;;;;;;;2.55;2.17;;;15.30;98.20;;;;;;913406;156;27316;-79
2022/12/26 12:40:59;;;;;;;2.60;2.40;;;15.30;98.20;;;;;;911468;153;27367;-80
2022/12/26 12:43:31;;;;;;;2.00;1.90;;;15.30;98.10;;;;;;912227;155;27337;-79
2022/12/26 12:46:25;;;;;;;1.50;1.40;;;15.30;98.20;;;;;;911988;153;27393;-80
2022/12/26 12:49:01;;;;;;;1.90;1.80;;;15.30;98.30;;;;;;912606;153;27396;-80
2022/12/26 12:51:33;;;;;;;1.40;1.32;;;15.30;98.20;;;;;;911354;154;27848;-79
2022/12/26 12:54:32;;;;;;;2.65;1.55;;;15.30;98.20;;;;;;913248;153;27494;-80
2022/12/26 12:57:20;;;;;;;1.70;1.60;;;15.30;98.00;;;;;;910482;157;27939;-79
2022/12/26 12:59:52;;;;;;;10.38;5.40;;;15.30;97.90;;;;;;913630;154;27415;-79
2022/12/26 13:02:28;;;;;;;7.22;4.12;;;15.20;97.80;;;;;;919178;153;27395;-79
2022/12/26 13:04:58;;;;;;;8.60;4.97;;;15.20;97.80;;;;;;919298;155;27498;-79
2022/12/26 13:07:24;;;;;;;14.38;6.70;;;15.20;97.90;;;;;;917693;152;27432;-79
2022/12/26 13:09:53;;;;;;;13.95;5.05;;;15.20;97.90;;;;;;918890;155;27417;-79
2022/12/26 13:12:23;;;;;;;7.67;3.27;;;15.20;97.70;;;;;;917839;155;27384;-79
2022/12/26 13:14:55;;;;;;;10.13;3.42;;;15.20;97.60;;;;;;918078;152;27306;-79
2022/12/26 13:17:22;;;;;;;5.78;2.90;;;15.10;97.40;;;;;;907922;154;27290;-79
2022/12/26 13:19:51;;;;;;;6.22;3.37;;;15.20;97.40;;;;;;912656;156;27417;-79
2022/12/26 13:22:26;;;;;;;10.65;4.80;;;15.20;97.50;;;;;;913302;154;27395;-79
2022/12/26 13:24:56;;;;;;;4.80;2.90;;;15.20;97.50;;;;;;913252;154;27853;-79
2022/12/26 13:27:25;;;;;;;3.72;2.55;;;15.20;97.50;;;;;;913240;154;27287;-79
2022/12/26 13:29:52;;;;;;;12.90;4.08;;;15.20;97.50;;;;;;914128;156;27341;-79
2022/12/26 13:32:21;;;;;;;8.80;4.35;;;15.20;97.50;;;;;;912823;154;27389;-80
2022/12/26 13:34:47;;;;;;;6.97;3.65;;;15.20;97.40;;;;;;913231;156;27350;-81
2022/12/26 13:37:39;;;;;;;3.35;1.90;;;15.20;97.20;;;;;;914800;156;27298;-79
2022/12/26 13:40:11;;;;;;;6.20;3.72;;;15.30;97.20;;;;;;912325;156;27372;-79
2022/12/26 13:45:38;;;;;;;5.85;3.10;;;15.30;97.10;;;;;;912425;154;27749;-80
2022/12/26 13:48:16;;;;;;;4.80;2.72;;;15.30;96.90;;;;;;903173;157;27361;-79
2022/12/26 13:50:49;;;;;;;7.90;3.50;;;15.30;96.80;;;;;;921460;151;27813;-81
2022/12/26 13:53:25;;;;;;;8.93;4.12;;;15.30;96.60;;;;;;911288;154;27435;-79
2022/12/26 13:55:54;;;;;;;10.70;3.58;;;15.30;96.60;;;;;;916641;152;27860;-79
2022/12/26 13:58:33;;;;;;;6.30;2.90;;;15.30;96.50;;;;;;917641;152;27337;-79
2022/12/26 14:01:29;;;;;;;3.90;1.98;;;15.30;96.10;;;;;;917829;151;27494;-79
2022/12/26 14:04:07;;;;;;;5.60;2.72;;;15.30;95.80;;;;;;916686;152;28466;-80
2022/12/26 14:06:39;;;;;;;13.65;6.17;;;15.30;95.70;;;;;;918178;151;27506;-79
2022/12/26 14:09:09;;;;;;;5.08;2.90;;;15.20;95.30;;;;;;918534;152;27418;-78
2022/12/26 14:12:00;;;;;;;4.22;3.80;;;15.20;95.40;;;;;;916247;152;27499;-79
2022/12/26 14:14:29;;;;;;;4.55;3.10;;;15.20;95.20;;;;;;918021;152;27402;-79
2022/12/26 14:17:05;;;;;;;3.10;2.37;;;15.10;95.20;;;;;;918619;152;27447;-79
2022/12/26 14:19:37;;;;;;;2.65;2.27;;;15.20;95.10;;;;;;916119;153;27342;-79
2022/12/26 14:22:06;;;;;;;2.87;2.62;;;15.10;95.00;;;;;;918436;151;27374;-79
2022/12/26 14:24:42;;;;;;;3.15;2.85;;;15.10;95.00;;;;;;917394;151;27404;-78
2022/12/26 14:27:23;;;;;;;3.65;3.33;;;15.10;94.90;;;;;;916409;151;27349;-79
2022/12/26 14:29:59;;;;;;;3.98;2.98;;;15.00;94.90;;;;;;917487;152;27450;-79
2022/12/26 14:32:53;;;;;;;2.40;2.20;;;15.00;94.90;;;;;;916695;152;27327;-79
2022/12/26 14:35:23;;;;;;;2.95;2.37;;;15.00;94.80;;;;;;918923;151;27359;-79
2022/12/26 14:38:10;;;;;;;1.52;1.40;;;14.90;94.60;;;;;;919649;152;27397;-79
2022/12/26 14:40:36;;;;;;;5.67;3.45;;;14.90;94.60;;;;;;918720;152;27847;-79
2022/12/26 14:43:37;;;;;;;6.95;3.05;;;14.90;94.60;;;;;;917961;151;27330;-79
2022/12/26 14:46:09;;;;;;;5.85;3.00;;;14.80;94.60;;;;;;921263;150;27389;-79
2022/12/26 14:48:38;;;;;;;8.33;3.20;;;14.90;94.70;;;;;;916528;151;27384;-79
2022/12/26 14:51:14;;;;;;;6.12;3.02;;;14.80;94.70;;;;;;920476;151;27538;-79
2022/12/26 14:53:41;;;;;;;5.33;2.60;;;14.80;94.70;;;;;;919331;151;27498;-79
2022/12/26 14:56:09;;;;;;;8.48;3.67;;;14.80;94.50;;;;;;916858;151;27461;-79
2022/12/26 14:58:37;;;;;;;4.53;2.52;;;14.80;94.50;;;;;;914494;153;27435;-79
2022/12/26 15:01:14;;;;;;;12.30;4.35;;;14.80;94.50;;;;;;913530;153;27413;-78
2022/12/26 15:03:54;;;;;;;5.80;2.77;;;14.80;94.40;;;;;;923240;152;27370;-79
2022/12/26 15:06:21;;;;;;;9.45;3.80;;;14.80;94.30;;;;;;913685;153;27414;-80
2022/12/26 15:09:05;;;;;;;5.08;2.45;;;14.80;94.20;;;;;;912511;154;27432;-79